sensor_id;sensor_type;location;lat;lon;timestamp;pressure;altitude;pressure_sealevel;temperature;humidity
71772;BME280;59606;52.138;5.424;2023-03-26T00:01:16;100826.06;;;7.16;100.00
71772;BME280;59606;52.138;5.424;2023-03-26T00:03:44;100829.56;;;7.15;100.00
71772;BME280;59606;52.138;5.424;2023-03-26T00:06:15;100826.97;;;7.15;100.00
71772;BME280;59606;52.138;5.424;2023-03-26T00:08:43;100827.81;;;7.16;100.00
71772;BME280;59606;52.138;5.424;2023-03-26T00:11:13;100830.44;;;7.14;100.00
71772;BME280;59606;52.138;5.424;2023-03-26T00:13:41;100825.34;;;7.13;100.00
71772;BME280;59606;52.138;5.424;2023-03-26T00:16:14;100817.56;;;7.13;100.00
71772;BME280;59606;52.138;5.424;2023-03-26T00:18:41;100827.94;;;7.13;100.00
71772;BME280;59606;52.138;5.424;2023-03-26T00:21:14;100826.25;;;7.12;100.00
71772;BME280;59606;52.138;5.424;2023-03-26T00:23:41;100820.16;;;7.13;100.00
71772;BME280;59606;52.138;5.424;2023-03-26T00:26:09;100824.50;;;7.12;100.00
71772;BME280;59606;52.138;5.424;2023-03-26T00:28:37;100815.91;;;7.12;100.00
71772;BME280;59606;52.138;5.424;2023-03-26T00:31:08;100815.06;;;7.11;100.00
71772;BME280;59606;52.138;5.424;2023-03-26T00:33:36;100819.38;;;7.11;100.00
71772;BME280;59606;52.138;5.424;2023-03-26T00:36:06;100822.03;;;7.09;100.00
71772;BME280;59606;52.138;5.424;2023-03-26T00:38:36;100809.13;;;7.07;100.00
71772;BME280;59606;52.138;5.424;2023-03-26T00:41:07;100804.88;;;7.06;100.00
71772;BME280;59606;52.138;5.424;2023-03-26T00:43:44;100800.66;;;7.04;100.00
71772;BME280;59606;52.138;5.424;2023-03-26T00:46:14;100800.78;;;7.01;100.00
71772;BME280;59606;52.138;5.424;2023-03-26T00:48:44;100788.81;;;6.98;100.00
71772;BME280;59606;52.138;5.424;2023-03-26T00:51:13;100787.09;;;6.97;100.00
71772;BME280;59606;52.138;5.424;2023-03-26T00:53:42;100782.00;;;6.96;100.00
71772;BME280;59606;52.138;5.424;2023-03-26T00:56:09;100778.56;;;6.95;100.00
71772;BME280;59606;52.138;5.424;2023-03-26T00:58:36;100780.31;;;6.95;100.00
71772;BME280;59606;52.138;5.424;2023-03-26T01:01:10;100769.97;;;6.95;100.00
71772;BME280;59606;52.138;5.424;2023-03-26T01:03:40;100777.78;;;6.93;100.00
71772;BME280;59606;52.138;5.424;2023-03-26T01:06:23;100781.19;;;6.94;100.00
71772;BME280;59606;52.138;5.424;2023-03-26T01:08:54;100785.63;;;6.92;100.00
71772;BME280;59606;52.138;5.424;2023-03-26T01:11:27;100777.84;;;6.92;100.00
71772;BME280;59606;52.138;5.424;2023-03-26T01:13:59;100777.00;;;6.91;100.00
71772;BME280;59606;52.138;5.424;2023-03-26T01:16:30;100773.56;;;6.91;100.00
71772;BME280;59606;52.138;5.424;2023-03-26T01:18:58;100766.69;;;6.90;100.00
71772;BME280;59606;52.138;5.424;2023-03-26T01:21:27;100758.94;;;6.90;100.00
71772;BME280;59606;52.138;5.424;2023-03-26T01:26:47;100742.56;;;6.89;100.00
71772;BME280;59606;52.138;5.424;2023-03-26T01:34:49;100733.03;;;6.90;100.00
71772;BME280;59606;52.138;5.424;2023-03-26T01:37:33;100739.06;;;6.90;100.00
71772;BME280;59606;52.138;5.424;2023-03-26T01:42:42;100728.66;;;6.92;100.00
71772;BME280;59606;52.138;5.424;2023-03-26T01:45:20;100731.16;;;6.93;100.00
71772;BME280;59606;52.138;5.424;2023-03-26T01:47:49;100722.50;;;6.94;100.00
71772;BME280;59606;52.138;5.424;2023-03-26T01:50:16;100720.75;;;6.95;100.00
71772;BME280;59606;52.138;5.424;2023-03-26T01:52:42;100714.66;;;6.96;100.00
71772;BME280;59606;52.138;5.424;2023-03-26T01:55:09;100706.97;;;6.94;100.00
71772;BME280;59606;52.138;5.424;2023-03-26T02:00:12;100703.50;;;6.94;100.00
71772;BME280;59606;52.138;5.424;2023-03-26T02:05:40;100691.56;;;6.91;100.00
71772;BME280;59606;52.138;5.424;2023-03-26T02:10:51;100682.09;;;6.90;100.00
71772;BME280;59606;52.138;5.424;2023-03-26T02:13:20;100681.25;;;6.90;100.00
71772;BME280;59606;52.138;5.424;2023-03-26T02:15:58;100674.38;;;6.89;100.00
71772;BME280;59606;52.138;5.424;2023-03-26T02:18:25;100673.56;;;6.88;100.00
71772;BME280;59606;52.138;5.424;2023-03-26T02:21:08;100677.03;;;6.87;100.00
71772;BME280;59606;52.138;5.424;2023-03-26T02:23:36;100671.94;;;6.85;100.00
71772;BME280;59606;52.138;5.424;2023-03-26T02:26:07;100672.84;;;6.84;100.00
71772;BME280;59606;52.138;5.424;2023-03-26T02:28:34;100666.78;;;6.84;100.00
71772;BME280;59606;52.138;5.424;2023-03-26T02:31:01;100665.13;;;6.83;100.00
71772;BME280;59606;52.138;5.424;2023-03-26T02:33:29;100664.28;;;6.82;100.00
71772;BME280;59606;52.138;5.424;2023-03-26T02:35:56;100662.63;;;6.81;100.00
71772;BME280;59606;52.138;5.424;2023-03-26T02:38:29;100653.84;;;6.84;100.00
71772;BME280;59606;52.138;5.424;2023-03-26T02:40:59;100655.59;;;6.83;100.00
71772;BME280;59606;52.138;5.424;2023-03-26T02:43:25;100651.25;;;6.84;100.00
71772;BME280;59606;52.138;5.424;2023-03-26T02:45:52;100648.69;;;6.84;100.00
71772;BME280;59606;52.138;5.424;2023-03-26T02:48:19;100647.78;;;6.85;100.00
71772;BME280;59606;52.138;5.424;2023-03-26T02:50:46;100645.97;;;6.87;100.00
71772;BME280;59606;52.138;5.424;2023-03-26T02:53:15;100647.59;;;6.90;100.00
71772;BME280;59606;52.138;5.424;2023-03-26T02:55:42;100647.53;;;6.91;100.00
71772;BME280;59606;52.138;5.424;2023-03-26T02:58:09;100643.94;;;6.94;100.00
71772;BME280;59606;52.138;5.424;2023-03-26T03:00:37;100648.25;;;6.95;100.00
71772;BME280;59606;52.138;5.424;2023-03-26T03:03:03;100643.81;;;6.97;100.00
71772;BME280;59606;52.138;5.424;2023-03-26T03:05:33;100647.25;;;6.97;100.00
71772;BME280;59606;52.138;5.424;2023-03-26T03:07:59;100643.78;;;6.98;100.00
71772;BME280;59606;52.138;5.424;2023-03-26T03:10:26;100636.75;;;7.00;100.00
71772;BME280;59606;52.138;5.424;2023-03-26T03:12:53;100632.44;;;7.01;100.00
71772;BME280;59606;52.138;5.424;2023-03-26T03:15:20;100632.44;;;7.01;100.00
71772;BME280;59606;52.138;5.424;2023-03-26T03:17:46;100636.75;;;7.00;100.00
71772;BME280;59606;52.138;5.424;2023-03-26T03:20:13;100634.94;;;7.02;100.00
71772;BME280;59606;52.138;5.424;2023-03-26T03:22:40;100630.56;;;7.04;100.00
71772;BME280;59606;52.138;5.424;2023-03-26T03:25:08;100626.97;;;7.07;100.00
71772;BME280;59606;52.138;5.424;2023-03-26T03:27:40;100626.00;;;7.09;100.00
71772;BME280;59606;52.138;5.424;2023-03-26T03:30:08;100619.06;;;7.10;100.00
71772;BME280;59606;52.138;5.424;2023-03-26T03:32:36;100616.44;;;7.12;100.00
71772;BME280;59606;52.138;5.424;2023-03-26T03:35:03;100618.03;;;7.14;100.00
71772;BME280;59606;52.138;5.424;2023-03-26T03:37:29;100609.34;;;7.15;100.00
71772;BME280;59606;52.138;5.424;2023-03-26T03:39:56;100610.19;;;7.16;100.00
71772;BME280;59606;52.138;5.424;2023-03-26T03:42:22;100608.38;;;7.18;100.00
71772;BME280;59606;52.138;5.424;2023-03-26T03:44:49;100610.81;;;7.21;100.00
71772;BME280;59606;52.138;5.424;2023-03-26T03:47:16;100610.75;;;7.22;100.00
71772;BME280;59606;52.138;5.424;2023-03-26T03:49:43;100609.84;;;7.23;100.00
71772;BME280;59606;52.138;5.424;2023-03-26T03:52:09;100606.28;;;7.26;100.00
71772;BME280;59606;52.138;5.424;2023-03-26T03:54:35;100607.97;;;7.27;100.00
71772;BME280;59606;52.138;5.424;2023-03-26T03:57:02;100613.00;;;7.30;100.00
71772;BME280;59606;52.138;5.424;2023-03-26T03:59:29;100607.81;;;7.30;100.00
71772;BME280;59606;52.138;5.424;2023-03-26T04:01:55;100608.59;;;7.32;100.00
71772;BME280;59606;52.138;5.424;2023-03-26T04:04:22;100607.69;;;7.33;100.00
71772;BME280;59606;52.138;5.424;2023-03-26T04:06:50;100601.66;;;7.32;100.00
71772;BME280;59606;52.138;5.424;2023-03-26T04:09:18;100597.31;;;7.33;100.00
71772;BME280;59606;52.138;5.424;2023-03-26T04:11:44;100591.22;;;7.34;100.00
71772;BME280;59606;52.138;5.424;2023-03-26T04:14:11;100593.81;;;7.34;100.00
71772;BME280;59606;52.138;5.424;2023-03-26T04:16:37;100587.75;;;7.35;100.00
71772;BME280;59606;52.138;5.424;2023-03-26T04:19:04;100585.97;;;7.36;100.00
71772;BME280;59606;52.138;5.424;2023-03-26T04:21:30;100578.22;;;7.36;100.00
71772;BME280;59606;52.138;5.424;2023-03-26T04:23:57;100579.88;;;7.37;100.00
71772;BME280;59606;52.138;5.424;2023-03-26T04:26:23;100573.03;;;7.36;100.00
71772;BME280;59606;52.138;5.424;2023-03-26T04:28:52;100569.50;;;7.37;100.00
71772;BME280;59606;52.138;5.424;2023-03-26T04:31:22;100570.34;;;7.37;100.00
71772;BME280;59606;52.138;5.424;2023-03-26T04:33:58;100565.16;;;7.37;100.00
71772;BME280;59606;52.138;5.424;2023-03-26T04:36:28;100559.16;;;7.37;100.00
71772;BME280;59606;52.138;5.424;2023-03-26T04:38:59;100553.03;;;7.38;100.00
71772;BME280;59606;52.138;5.424;2023-03-26T04:41:28;100548.72;;;7.38;100.00
71772;BME280;59606;52.138;5.424;2023-03-26T04:43:55;100546.13;;;7.38;100.00
71772;BME280;59606;52.138;5.424;2023-03-26T04:46:22;100536.66;;;7.37;100.00
71772;BME280;59606;52.138;5.424;2023-03-26T04:48:53;100536.59;;;7.39;100.00
71772;BME280;59606;52.138;5.424;2023-03-26T04:51:23;100528.00;;;7.38;100.00
71772;BME280;59606;52.138;5.424;2023-03-26T04:53:52;100525.41;;;7.38;100.00
71772;BME280;59606;52.138;5.424;2023-03-26T04:56:45;100521.94;;;7.38;100.00
71772;BME280;59606;52.138;5.424;2023-03-26T04:59:18;100518.47;;;7.39;100.00
71772;BME280;59606;52.138;5.424;2023-03-26T05:01:45;100517.63;;;7.38;100.00
71772;BME280;59606;52.138;5.424;2023-03-26T05:04:12;100509.84;;;7.38;100.00
71772;BME280;59606;52.138;5.424;2023-03-26T05:06:39;100511.59;;;7.38;100.00
71772;BME280;59606;52.138;5.424;2023-03-26T05:09:08;100508.16;;;7.37;100.00
71772;BME280;59606;52.138;5.424;2023-03-26T05:11:36;100496.97;;;7.37;100.00
71772;BME280;59606;52.138;5.424;2023-03-26T05:14:02;100500.38;;;7.37;100.00
71772;BME280;59606;52.138;5.424;2023-03-26T05:16:31;100503.91;;;7.36;100.00
71772;BME280;59606;52.138;5.424;2023-03-26T05:18:58;100505.56;;;7.37;100.00
71772;BME280;59606;52.138;5.424;2023-03-26T05:21:24;100492.69;;;7.36;100.00
71772;BME280;59606;52.138;5.424;2023-03-26T05:23:51;100502.22;;;7.35;100.00
71772;BME280;59606;52.138;5.424;2023-03-26T05:26:18;100487.50;;;7.36;100.00
71772;BME280;59606;52.138;5.424;2023-03-26T05:28:45;100490.09;;;7.36;100.00
71772;BME280;59606;52.138;5.424;2023-03-26T05:31:11;100478.81;;;7.37;100.00
71772;BME280;59606;52.138;5.424;2023-03-26T05:33:37;100479.66;;;7.37;100.00
71772;BME280;59606;52.138;5.424;2023-03-26T05:36:09;100477.97;;;7.36;100.00
71772;BME280;59606;52.138;5.424;2023-03-26T05:38:39;100475.31;;;7.38;100.00
71772;BME280;59606;52.138;5.424;2023-03-26T05:41:07;100477.91;;;7.38;100.00
71772;BME280;59606;52.138;5.424;2023-03-26T05:43:35;100477.00;;;7.39;100.00
71772;BME280;59606;52.138;5.424;2023-03-26T05:46:02;100467.47;;;7.39;100.00
71772;BME280;59606;52.138;5.424;2023-03-26T05:48:29;100468.31;;;7.40;100.00
71772;BME280;59606;52.138;5.424;2023-03-26T05:50:57;100463.97;;;7.40;100.00
71772;BME280;59606;52.138;5.424;2023-03-26T05:53:25;100459.59;;;7.41;100.00
71772;BME280;59606;52.138;5.424;2023-03-26T05:55:52;100462.97;;;7.43;100.00
71772;BME280;59606;52.138;5.424;2023-03-26T05:58:31;100458.63;;;7.43;100.00
71772;BME280;59606;52.138;5.424;2023-03-26T06:00:59;100457.72;;;7.44;100.00
71772;BME280;59606;52.138;5.424;2023-03-26T06:03:36;100462.00;;;7.45;100.00
71772;BME280;59606;52.138;5.424;2023-03-26T06:06:07;100449.03;;;7.45;100.00
71772;BME280;59606;52.138;5.424;2023-03-26T06:08:34;100453.31;;;7.46;100.00
71772;BME280;59606;52.138;5.424;2023-03-26T06:11:03;100441.19;;;7.47;100.00
71772;BME280;59606;52.138;5.424;2023-03-26T06:13:30;100435.94;;;7.48;100.00
71772;BME280;59606;52.138;5.424;2023-03-26T06:15:57;100430.75;;;7.48;100.00
71772;BME280;59606;52.138;5.424;2023-03-26T06:18:24;100429.91;;;7.48;100.00
71772;BME280;59606;52.138;5.424;2023-03-26T06:20:51;100427.25;;;7.49;100.00
71772;BME280;59606;52.138;5.424;2023-03-26T06:23:18;100429.75;;;7.51;100.00
71772;BME280;59606;52.138;5.424;2023-03-26T06:25:45;100422.84;;;7.51;100.00
71772;BME280;59606;52.138;5.424;2023-03-26T06:28:12;100428.75;;;7.53;100.00
71772;BME280;59606;52.138;5.424;2023-03-26T06:30:39;100420.94;;;7.55;100.00
71772;BME280;59606;52.138;5.424;2023-03-26T06:33:05;100415.75;;;7.55;100.00
71772;BME280;59606;52.138;5.424;2023-03-26T06:35:32;100418.25;;;7.56;100.00
71772;BME280;59606;52.138;5.424;2023-03-26T06:37:59;100419.91;;;7.57;100.00
71772;BME280;59606;52.138;5.424;2023-03-26T06:40:25;100420.59;;;7.61;100.00
71772;BME280;59606;52.138;5.424;2023-03-26T06:42:52;100419.72;;;7.62;100.00
71772;BME280;59606;52.138;5.424;2023-03-26T06:45:36;100411.78;;;7.65;100.00
71772;BME280;59606;52.138;5.424;2023-03-26T06:48:03;100418.63;;;7.66;100.00
71772;BME280;59606;52.138;5.424;2023-03-26T06:50:30;100417.66;;;7.69;100.00
71772;BME280;59606;52.138;5.424;2023-03-26T06:52:58;100415.91;;;7.69;100.00
71772;BME280;59606;52.138;5.424;2023-03-26T06:55:24;100411.47;;;7.71;100.00
71772;BME280;59606;52.138;5.424;2023-03-26T06:57:52;100410.56;;;7.72;100.00
71772;BME280;59606;52.138;5.424;2023-03-26T07:00:20;100413.06;;;7.74;100.00
71772;BME280;59606;52.138;5.424;2023-03-26T07:02:46;100407.81;;;7.75;100.00
71772;BME280;59606;52.138;5.424;2023-03-26T07:05:13;100413.00;;;7.75;100.00
71772;BME280;59606;52.138;5.424;2023-03-26T07:07:41;100415.50;;;7.77;100.00
71772;BME280;59606;52.138;5.424;2023-03-26T07:10:12;100413.75;;;7.77;100.00
71772;BME280;59606;52.138;5.424;2023-03-26T07:12:39;100411.09;;;7.79;100.00
71772;BME280;59606;52.138;5.424;2023-03-26T07:15:07;100415.34;;;7.80;100.00
71772;BME280;59606;52.138;5.424;2023-03-26T07:17:35;100421.38;;;7.80;100.00
71772;BME280;59606;52.138;5.424;2023-03-26T07:20:06;100412.69;;;7.82;100.00
71772;BME280;59606;52.138;5.424;2023-03-26T07:22:33;100411.69;;;7.84;100.00
71772;BME280;59606;52.138;5.424;2023-03-26T07:25:00;100409.88;;;7.86;100.00
71772;BME280;59606;52.138;5.424;2023-03-26T07:27:34;100405.44;;;7.88;100.00
71772;BME280;59606;52.138;5.424;2023-03-26T07:30:08;100407.03;;;7.91;100.00
71772;BME280;59606;52.138;5.424;2023-03-26T07:33:00;100406.97;;;7.92;100.00
71772;BME280;59606;52.138;5.424;2023-03-26T07:35:45;100404.22;;;7.95;100.00
71772;BME280;59606;52.138;5.424;2023-03-26T07:46:31;100403.97;;;8.00;100.00
71772;BME280;59606;52.138;5.424;2023-03-26T07:48:59;100405.47;;;8.04;100.00
71772;BME280;59606;52.138;5.424;2023-03-26T07:51:27;100409.84;;;8.03;100.00
71772;BME280;59606;52.138;5.424;2023-03-26T07:53:55;100398.53;;;8.04;100.00
71772;BME280;59606;52.138;5.424;2023-03-26T07:56:50;100406.25;;;8.06;100.00
71772;BME280;59606;52.138;5.424;2023-03-26T07:59:43;100394.88;;;8.09;100.00
71772;BME280;59606;52.138;5.424;2023-03-26T08:05:12;100397.31;;;8.12;100.00
71772;BME280;59606;52.138;5.424;2023-03-26T08:14:03;100389.88;;;8.21;100.00
71772;BME280;59606;52.138;5.424;2023-03-26T08:16:36;100388.22;;;8.20;100.00
71772;BME280;59606;52.138;5.424;2023-03-26T08:22:18;100394.84;;;8.26;100.00
71772;BME280;59606;52.138;5.424;2023-03-26T08:28:34;100387.91;;;8.26;100.00
71772;BME280;59606;52.138;5.424;2023-03-26T08:31:05;100387.06;;;8.26;100.00
71772;BME280;59606;52.138;5.424;2023-03-26T08:33:33;100386.22;;;8.25;100.00
71772;BME280;59606;52.138;5.424;2023-03-26T08:36:03;100389.72;;;8.24;100.00
71772;BME280;59606;52.138;5.424;2023-03-26T08:38:31;100383.78;;;8.22;100.00
71772;BME280;59606;52.138;5.424;2023-03-26T08:55:20;100393.13;;;8.09;100.00
71772;BME280;59606;52.138;5.424;2023-03-26T09:14:56;100398.00;;;7.98;100.00
71772;BME280;59606;52.138;5.424;2023-03-26T09:40:36;100397.13;;;7.99;100.00
71772;BME280;59606;52.138;5.424;2023-03-26T09:43:46;100400.53;;;7.99;100.00
71772;BME280;59606;52.138;5.424;2023-03-26T09:51:55;100404.81;;;8.00;100.00
71772;BME280;59606;52.138;5.424;2023-03-26T09:54:49;100402.31;;;7.99;100.00
71772;BME280;59606;52.138;5.424;2023-03-26T09:57:42;100407.41;;;8.00;100.00
71772;BME280;59606;52.138;5.424;2023-03-26T10:00:27;100410.66;;;8.04;100.00
71772;BME280;59606;52.138;5.424;2023-03-26T10:03:13;100407.50;;;7.99;100.00
71772;BME280;59606;52.138;5.424;2023-03-26T10:10:54;100423.06;;;7.99;100.00
71772;BME280;59606;52.138;5.424;2023-03-26T10:16:37;100421.19;;;8.01;100.00
71772;BME280;59606;52.138;5.424;2023-03-26T10:25:01;100430.59;;;8.03;100.00
71772;BME280;59606;52.138;5.424;2023-03-26T10:27:58;100427.84;;;8.07;100.00
71772;BME280;59606;52.138;5.424;2023-03-26T10:34:23;100428.63;;;8.09;100.00
71772;BME280;59606;52.138;5.424;2023-03-26T10:36:37;100431.94;;;8.11;100.00
71772;BME280;59606;52.138;5.424;2023-03-26T10:39:42;100430.28;;;8.10;100.00
71772;BME280;59606;52.138;5.424;2023-03-26T10:47:51;100441.75;;;8.06;100.00
71772;BME280;59606;52.138;5.424;2023-03-26T10:50:42;100439.31;;;8.02;100.00
71772;BME280;59606;52.138;5.424;2023-03-26T10:56:13;100451.50;;;8.00;100.00
71772;BME280;59606;52.138;5.424;2023-03-26T10:58:42;100449.88;;;7.98;100.00
71772;BME280;59606;52.138;5.424;2023-03-26T11:01:39;100448.31;;;7.95;100.00
71772;BME280;59606;52.138;5.424;2023-03-26T11:04:19;100453.34;;;7.98;100.00
71772;BME280;59606;52.138;5.424;2023-03-26T11:10:00;100455.53;;;8.06;100.00
71772;BME280;59606;52.138;5.424;2023-03-26T11:13:15;100453.94;;;8.03;100.00
71772;BME280;59606;52.138;5.424;2023-03-26T11:15:50;100468.03;;;7.98;100.00
71772;BME280;59606;52.138;5.424;2023-03-26T11:21:12;100468.75;;;8.01;100.00
71772;BME280;59606;52.138;5.424;2023-03-26T11:23:52;100466.06;;;8.03;100.00
71772;BME280;59606;52.138;5.424;2023-03-26T11:26:55;100469.97;;;8.12;100.00
71772;BME280;59606;52.138;5.424;2023-03-26T11:29:48;100470.41;;;8.20;100.00
71772;BME280;59606;52.138;5.424;2023-03-26T11:32:25;100471.88;;;8.25;100.00
71772;BME280;59606;52.138;5.424;2023-03-26T11:35:06;100476.38;;;8.22;100.00
71772;BME280;59606;52.138;5.424;2023-03-26T11:37:41;100476.38;;;8.22;100.00
71772;BME280;59606;52.138;5.424;2023-03-26T11:40:41;100482.75;;;8.15;100.00
71772;BME280;59606;52.138;5.424;2023-03-26T11:43:11;100490.78;;;8.10;100.00
71772;BME280;59606;52.138;5.424;2023-03-26T11:45:42;100486.81;;;8.03;100.00
71772;BME280;59606;52.138;5.424;2023-03-26T11:48:17;100480.03;;;8.00;100.00
71772;BME280;59606;52.138;5.424;2023-03-26T11:50:50;100477.53;;;7.99;100.00
71772;BME280;59606;52.138;5.424;2023-03-26T11:53:28;100485.38;;;7.97;100.00
71772;BME280;59606;52.138;5.424;2023-03-26T11:56:08;100493.25;;;7.96;100.00
71772;BME280;59606;52.138;5.424;2023-03-26T11:58:51;100496.59;;;7.98;100.00
71772;BME280;59606;52.138;5.424;2023-03-26T12:01:28;100487.75;;;8.02;100.00
71772;BME280;59606;52.138;5.424;2023-03-26T12:04:19;100491.94;;;8.04;100.00
71772;BME280;59606;52.138;5.424;2023-03-26T12:09:18;100501.69;;;8.17;100.00
71772;BME280;59606;52.138;5.424;2023-03-26T12:11:46;100498.72;;;8.24;100.00
71772;BME280;59606;52.138;5.424;2023-03-26T12:14:20;100503.00;;;8.25;100.00
71772;BME280;59606;52.138;5.424;2023-03-26T12:17:05;100500.41;;;8.25;100.00
71772;BME280;59606;52.138;5.424;2023-03-26T12:19:44;100508.03;;;8.29;100.00
71772;BME280;59606;52.138;5.424;2023-03-26T12:22:38;100507.94;;;8.30;100.00
71772;BME280;59606;52.138;5.424;2023-03-26T12:25:14;100500.63;;;8.38;100.00
71772;BME280;59606;52.138;5.424;2023-03-26T12:30:29;100513.81;;;8.51;99.21
71772;BME280;59606;52.138;5.424;2023-03-26T12:32:59;100517.19;;;8.53;98.52
71772;BME280;59606;52.138;5.424;2023-03-26T12:35:33;100515.81;;;8.63;98.26
71772;BME280;59606;52.138;5.424;2023-03-26T12:40:42;100517.84;;;8.74;96.95
71772;BME280;59606;52.138;5.424;2023-03-26T12:43:28;100516.75;;;8.78;94.99
71772;BME280;59606;52.138;5.424;2023-03-26T12:46:26;100522.63;;;8.82;94.49
71772;BME280;59606;52.138;5.424;2023-03-26T12:49:12;100525.16;;;8.83;93.56
71772;BME280;59606;52.138;5.424;2023-03-26T12:54:20;100531.78;;;8.89;92.53
71772;BME280;59606;52.138;5.424;2023-03-26T13:00:12;100533.97;;;8.96;91.93
71772;BME280;59606;52.138;5.424;2023-03-26T13:08:28;100540.53;;;9.04;89.12
71772;BME280;59606;52.138;5.424;2023-03-26T13:14:09;100546.91;;;9.14;88.25
71772;BME280;59606;52.138;5.424;2023-03-26T13:27:27;100562.75;;;9.25;84.76
71772;BME280;59606;52.138;5.424;2023-03-26T13:30:02;100568.81;;;9.26;84.68
71772;BME280;59606;52.138;5.424;2023-03-26T13:37:55;100577.88;;;9.34;83.62
71772;BME280;59606;52.138;5.424;2023-03-26T13:43:18;100575.19;;;9.36;83.41
71772;BME280;59606;52.138;5.424;2023-03-26T13:45:59;100572.00;;;9.47;82.80
71772;BME280;59606;52.138;5.424;2023-03-26T13:48:39;100576.69;;;9.40;80.74
71772;BME280;59606;52.138;5.424;2023-03-26T13:51:47;100574.00;;;9.41;80.11
71772;BME280;59606;52.138;5.424;2023-03-26T13:54:21;100580.31;;;9.37;79.17
71772;BME280;59606;52.138;5.424;2023-03-26T13:57:15;100579.97;;;9.43;80.51
71772;BME280;59606;52.138;5.424;2023-03-26T13:59:43;100579.81;;;9.47;77.75
71772;BME280;59606;52.138;5.424;2023-03-26T14:02:22;100587.84;;;9.42;79.20
71772;BME280;59606;52.138;5.424;2023-03-26T14:04:57;100579.88;;;9.45;78.06
71772;BME280;59606;52.138;5.424;2023-03-26T14:07:37;100583.41;;;9.44;79.67
71772;BME280;59606;52.138;5.424;2023-03-26T14:10:07;100596.31;;;9.45;80.53
71772;BME280;59606;52.138;5.424;2023-03-26T14:12:45;100594.75;;;9.43;78.87
71772;BME280;59606;52.138;5.424;2023-03-26T14:15:26;100602.78;;;9.38;78.63
71772;BME280;59606;52.138;5.424;2023-03-26T14:26:53;100614.00;;;9.23;78.18
71772;BME280;59606;52.138;5.424;2023-03-26T14:29:45;100620.44;;;9.16;76.95
71772;BME280;59606;52.138;5.424;2023-03-26T14:35:14;100630.16;;;9.12;76.79
71772;BME280;59606;52.138;5.424;2023-03-26T14:52:23;100661.72;;;9.05;75.66
71772;BME280;59606;52.138;5.424;2023-03-26T14:55:00;100670.00;;;8.95;74.25
71772;BME280;59606;52.138;5.424;2023-03-26T14:58:01;100675.41;;;8.91;75.12
71772;BME280;59606;52.138;5.424;2023-03-26T15:15:15;100695.81;;;8.81;74.72
71772;BME280;59606;52.138;5.424;2023-03-26T15:23:51;100706.59;;;8.91;74.35
71772;BME280;59606;52.138;5.424;2023-03-26T15:32:27;100719.81;;;8.86;71.30
71772;BME280;59606;52.138;5.424;2023-03-26T15:38:17;100730.97;;;8.88;71.16
71772;BME280;59606;52.138;5.424;2023-03-26T15:40:30;100733.09;;;8.80;70.59
71772;BME280;59606;52.138;5.424;2023-03-26T15:43:13;100744.78;;;8.71;70.34
71772;BME280;59606;52.138;5.424;2023-03-26T15:57:53;100779.34;;;8.55;71.22
71772;BME280;59606;52.138;5.424;2023-03-26T16:00:24;100788.91;;;8.54;70.69
71772;BME280;59606;52.138;5.424;2023-03-26T16:08:13;100808.34;;;8.45;71.25
71772;BME280;59606;52.138;5.424;2023-03-26T16:10:57;100811.22;;;8.39;71.23
71772;BME280;59606;52.138;5.424;2023-03-26T16:18:38;100821.22;;;8.28;69.38
71772;BME280;59606;52.138;5.424;2023-03-26T16:29:16;100844.31;;;8.15;69.50
71772;BME280;59606;52.138;5.424;2023-03-26T16:32:09;100841.91;;;8.11;68.20
71772;BME280;59606;52.138;5.424;2023-03-26T16:34:59;100847.31;;;8.06;68.85
71772;BME280;59606;52.138;5.424;2023-03-26T16:45:45;100875.31;;;7.98;67.64
71772;BME280;59606;52.138;5.424;2023-03-26T16:51:07;100882.34;;;7.96;67.53
71772;BME280;59606;52.138;5.424;2023-03-26T16:58:53;100907.56;;;7.92;66.78
71772;BME280;59606;52.138;5.424;2023-03-26T17:04:08;100924.47;;;7.80;66.63
71772;BME280;59606;52.138;5.424;2023-03-26T17:06:46;100925.66;;;7.73;65.49
71772;BME280;59606;52.138;5.424;2023-03-26T17:09:23;100925.97;;;7.66;65.12
71772;BME280;59606;52.138;5.424;2023-03-26T17:14:41;100948.72;;;7.59;66.03
71772;BME280;59606;52.138;5.424;2023-03-26T17:17:32;100950.59;;;7.55;64.82
71772;BME280;59606;52.138;5.424;2023-03-26T17:20:06;100952.41;;;7.53;64.96
71772;BME280;59606;52.138;5.424;2023-03-26T17:25:44;100962.41;;;7.41;64.13
71772;BME280;59606;52.138;5.424;2023-03-26T17:30:59;100986.00;;;7.35;63.85
71772;BME280;59606;52.138;5.424;2023-03-26T17:33:35;100985.31;;;7.29;64.22
71772;BME280;59606;52.138;5.424;2023-03-26T17:43:57;101022.78;;;7.21;67.38
71772;BME280;59606;52.138;5.424;2023-03-26T17:46:42;101022.84;;;7.19;67.15
71772;BME280;59606;52.138;5.424;2023-03-26T17:49:18;101023.91;;;7.14;65.85
71772;BME280;59606;52.138;5.424;2023-03-26T17:54:36;101025.97;;;7.05;65.56
71772;BME280;59606;52.138;5.424;2023-03-26T17:57:14;101028.56;;;7.05;65.53
71772;BME280;59606;52.138;5.424;2023-03-26T17:59:43;101033.91;;;7.01;64.69
71772;BME280;59606;52.138;5.424;2023-03-26T18:02:26;101039.31;;;6.95;65.49
71772;BME280;59606;52.138;5.424;2023-03-26T18:04:59;101043.88;;;6.88;65.55
71772;BME280;59606;52.138;5.424;2023-03-26T18:16:42;101074.00;;;6.66;65.44
71772;BME280;59606;52.138;5.424;2023-03-26T18:19:14;101081.13;;;6.59;65.42
71772;BME280;59606;52.138;5.424;2023-03-26T18:21:47;101082.91;;;6.57;65.54
71772;BME280;59606;52.138;5.424;2023-03-26T18:24:23;101087.31;;;6.55;65.42
71772;BME280;59606;52.138;5.424;2023-03-26T18:27:03;101096.75;;;6.56;65.37
71772;BME280;59606;52.138;5.424;2023-03-26T18:29:34;101099.34;;;6.56;65.23
71772;BME280;59606;52.138;5.424;2023-03-26T18:32:16;101109.72;;;6.56;65.39
71772;BME280;59606;52.138;5.424;2023-03-26T18:34:50;101114.84;;;6.57;65.52